Time;durP1;ratioP1;P1;durP2;ratioP2;P2;SDS_P1;SDS_P2;PMS_P1;PMS_P2;Temp;Humidity;BMP_temperature;BMP_pressure;BME280_temperature;BME280_humidity;BME280_pressure;Samples;Min_cycle;Max_cycle;Signal;HPM_P1;HPM_P2
2023/10/10 00:00:47;;;;;;;21.90;12.15;;;;;;;;;;12955487;22;20384;-86
2023/10/10 00:05:52;;;;;;;19.20;11.30;;;;;;;;;;12916637;23;20422;-86
2023/10/10 00:10:55;;;;;;;19.45;11.70;;;;;;;;;;12937511;23;20360;-87
2023/10/10 00:16:02;;;;;;;19.55;11.88;;;;;;;;;;12915930;23;20364;-86
2023/10/10 00:21:07;;;;;;;18.60;12.23;;;;;;;;;;12914924;23;20380;-86
2023/10/10 00:26:14;;;;;;;21.17;12.43;;;;;;;;;;12916699;23;20365;-86
2023/10/10 00:31:18;;;;;;;24.88;12.90;;;;;;;;;;12915693;23;20368;-86
2023/10/10 00:36:22;;;;;;;19.63;12.60;;;;;;;;;;12937636;23;20360;-87
2023/10/10 00:41:26;;;;;;;20.90;11.75;;;;;;;;;;12915912;23;20435;-86
2023/10/10 00:46:29;;;;;;;17.23;10.80;;;;;;;;;;12915288;23;20361;-86
2023/10/10 00:51:33;;;;;;;19.98;12.32;;;;;;;;;;12917454;23;20429;-86
2023/10/10 00:56:36;;;;;;;21.33;11.90;;;;;;;;;;12936755;23;20597;-86
2023/10/10 01:01:40;;;;;;;18.63;12.07;;;;;;;;;;12915678;22;20897;-86
2023/10/10 01:06:44;;;;;;;20.13;11.98;;;;;;;;;;12915743;23;20425;-86
2023/10/10 01:11:48;;;;;;;16.55;11.50;;;;;;;;;;12915317;23;20451;-85
2023/10/10 01:16:54;;;;;;;17.83;11.90;;;;;;;;;;12916359;23;20394;-86
2023/10/10 01:21:59;;;;;;;19.77;11.17;;;;;;;;;;12915426;23;20422;-86
2023/10/10 01:27:14;;;;;;;20.38;12.30;;;;;;;;;;12889229;23;20433;-86
2023/10/10 01:32:17;;;;;;;21.73;12.00;;;;;;;;;;12914792;23;20368;-86
2023/10/10 01:37:21;;;;;;;22.30;12.67;;;;;;;;;;12915365;23;20394;-86
2023/10/10 01:42:31;;;;;;;21.98;12.32;;;;;;;;;;12914682;23;20438;-86
2023/10/10 01:47:34;;;;;;;18.80;12.33;;;;;;;;;;12916794;23;20372;-86
2023/10/10 01:52:45;;;;;;;18.35;11.55;;;;;;;;;;12917128;23;20430;-86
2023/10/10 01:57:48;;;;;;;20.97;11.80;;;;;;;;;;12915274;23;20432;-86
2023/10/10 02:02:52;;;;;;;19.85;12.02;;;;;;;;;;12913210;22;20694;-86
2023/10/10 02:07:57;;;;;;;19.13;11.65;;;;;;;;;;12914897;23;20426;-87
2023/10/10 02:13:00;;;;;;;19.50;12.00;;;;;;;;;;12935940;23;20749;-86
2023/10/10 02:18:05;;;;;;;21.65;12.35;;;;;;;;;;12918652;23;20360;-86
2023/10/10 02:23:23;;;;;;;23.25;12.07;;;;;;;;;;12918921;23;20364;-86
2023/10/10 02:28:43;;;;;;;22.13;12.33;;;;;;;;;;12918137;23;20356;-85
2023/10/10 02:33:55;;;;;;;22.25;12.38;;;;;;;;;;12918295;23;20360;-86
2023/10/10 02:39:18;;;;;;;20.20;12.23;;;;;;;;;;12918582;23;20490;-87
2023/10/10 02:44:46;;;;;;;19.95;11.93;;;;;;;;;;12917910;23;20422;-86
2023/10/10 02:49:50;;;;;;;18.73;12.00;;;;;;;;;;12920741;23;20684;-86
2023/10/10 02:54:55;;;;;;;19.03;11.97;;;;;;;;;;12918523;23;20365;-86
2023/10/10 03:00:15;;;;;;;20.98;11.73;;;;;;;;;;12917115;22;20835;-86
2023/10/10 03:05:20;;;;;;;19.38;11.98;;;;;;;;;;12917021;23;20403;-86
2023/10/10 03:10:37;;;;;;;19.10;11.30;;;;;;;;;;12917460;23;20439;-85
2023/10/10 03:15:49;;;;;;;19.38;11.93;;;;;;;;;;12917276;23;20357;-85
2023/10/10 03:21:07;;;;;;;19.55;11.35;;;;;;;;;;12916530;23;20457;-85
2023/10/10 03:26:18;;;;;;;21.23;12.27;;;;;;;;;;12916616;23;20434;-86
2023/10/10 03:31:31;;;;;;;22.52;12.02;;;;;;;;;;12916350;23;20696;-85
2023/10/10 03:36:40;;;;;;;18.23;10.77;;;;;;;;;;12916699;23;20399;-86
2023/10/10 05:23:35;;;;;;;25.00;11.68;;;;;;;;;;12935156;23;20388;-85
2023/10/10 05:28:40;;;;;;;19.50;10.65;;;;;;;;;;12913492;23;20369;-86
2023/10/10 05:33:44;;;;;;;21.42;11.68;;;;;;;;;;12912771;23;20352;-86
2023/10/10 05:38:48;;;;;;;22.55;11.25;;;;;;;;;;12911663;23;20395;-87
2023/10/10 05:43:50;;;;;;;20.17;11.70;;;;;;;;;;12930612;23;20909;-86
2023/10/10 05:48:56;;;;;;;23.00;11.63;;;;;;;;;;12909921;23;20816;-87
2023/10/10 05:53:58;;;;;;;19.58;11.02;;;;;;;;;;12909730;23;20430;-86
2023/10/10 05:59:02;;;;;;;20.93;11.67;;;;;;;;;;12911408;22;20850;-86
2023/10/10 06:04:07;;;;;;;23.57;11.40;;;;;;;;;;12911650;23;20670;-86
2023/10/10 06:09:18;;;;;;;20.33;11.30;;;;;;;;;;12911719;23;20421;-86
2023/10/10 06:14:21;;;;;;;20.45;11.75;;;;;;;;;;12906240;23;20462;-86
2023/10/10 06:19:25;;;;;;;18.75;11.43;;;;;;;;;;12907427;23;20372;-85
2023/10/10 06:24:27;;;;;;;25.33;12.43;;;;;;;;;;12912433;23;20364;-86
2023/10/10 06:29:30;;;;;;;22.25;11.82;;;;;;;;;;12914580;23;20364;-86
2023/10/10 06:34:36;;;;;;;21.38;11.85;;;;;;;;;;12913440;23;20418;-86
2023/10/10 06:39:54;;;;;;;23.80;12.30;;;;;;;;;;12934647;23;20368;-85
2023/10/10 06:45:01;;;;;;;19.90;11.63;;;;;;;;;;12914058;23;20426;-86
2023/10/10 06:50:10;;;;;;;23.87;12.50;;;;;;;;;;12913919;23;20360;-87
2023/10/10 06:55:21;;;;;;;22.67;12.77;;;;;;;;;;12916752;23;20688;-86
2023/10/10 07:00:27;;;;;;;22.27;12.27;;;;;;;;;;12917396;22;20419;-86
2023/10/10 07:05:33;;;;;;;18.95;11.13;;;;;;;;;;12916897;23;20442;-86
2023/10/10 07:10:36;;;;;;;22.40;12.85;;;;;;;;;;12918295;23;20392;-86
2023/10/10 07:15:39;;;;;;;23.75;12.05;;;;;;;;;;12917737;23;20360;-85
2023/10/10 07:26:06;;;;;;;19.90;11.85;;;;;;;;;;12937947;23;20360;-86
2023/10/10 07:31:17;;;;;;;25.52;11.20;;;;;;;;;;12917020;23;20365;-86
2023/10/10 07:36:24;;;;;;;22.67;12.23;;;;;;;;;;12916263;23;20399;-86
2023/10/10 07:41:27;;;;;;;20.90;11.82;;;;;;;;;;12917109;23;20388;-86
2023/10/10 07:46:35;;;;;;;22.77;13.13;;;;;;;;;;12938353;23;20353;-86
2023/10/10 07:51:49;;;;;;;23.48;12.43;;;;;;;;;;12917060;23;20462;-86
2023/10/10 07:56:55;;;;;;;21.77;12.80;;;;;;;;;;12917599;23;20920;-86
2023/10/10 08:01:59;;;;;;;23.23;12.43;;;;;;;;;;12919486;22;20410;-86
2023/10/10 08:07:03;;;;;;;26.20;12.93;;;;;;;;;;12916170;23;20735;-86
2023/10/10 08:12:06;;;;;;;31.23;14.70;;;;;;;;;;12915710;23;20903;-85
2023/10/10 08:17:18;;;;;;;26.10;14.05;;;;;;;;;;12890053;23;20364;-87
2023/10/10 08:22:25;;;;;;;25.67;14.10;;;;;;;;;;12915092;23;20392;-86
2023/10/10 08:27:28;;;;;;;26.02;14.57;;;;;;;;;;12916290;23;20373;-86
2023/10/10 08:32:30;;;;;;;32.13;16.80;;;;;;;;;;12915036;23;20372;-85
2023/10/10 08:37:34;;;;;;;31.48;16.23;;;;;;;;;;12915558;23;20364;-86
2023/10/10 08:42:37;;;;;;;31.83;18.10;;;;;;;;;;12914533;23;20844;-86
2023/10/10 08:47:42;;;;;;;35.27;18.73;;;;;;;;;;12914783;23;20442;-86
2023/10/10 08:52:46;;;;;;;39.90;20.42;;;;;;;;;;12915000;23;20368;-86
2023/10/10 08:57:51;;;;;;;41.17;19.87;;;;;;;;;;12914796;23;20360;-86
2023/10/10 09:02:54;;;;;;;38.13;20.27;;;;;;;;;;12920117;22;20434;-86
2023/10/10 09:08:06;;;;;;;38.55;20.75;;;;;;;;;;12914622;23;20360;-87
2023/10/10 09:13:09;;;;;;;39.70;19.90;;;;;;;;;;12913950;23;20361;-87
2023/10/10 09:18:14;;;;;;;41.72;20.42;;;;;;;;;;12914153;23;20361;-86
2023/10/10 09:23:25;;;;;;;40.70;20.17;;;;;;;;;;12914494;23;20442;-87
2023/10/10 09:28:30;;;;;;;35.15;19.73;;;;;;;;;;12914621;23;20824;-86
2023/10/10 09:33:33;;;;;;;44.17;21.17;;;;;;;;;;12914307;23;20364;-87
2023/10/10 09:38:43;;;;;;;35.90;20.77;;;;;;;;;;12935127;23;20352;-87
2023/10/10 09:44:27;;;;;;;35.60;19.58;;;;;;;;;;12913252;23;20388;-87
2023/10/10 09:49:35;;;;;;;37.40;20.98;;;;;;;;;;12913535;23;20434;-86
2023/10/10 09:54:40;;;;;;;35.27;19.67;;;;;;;;;;12907011;23;20852;-86
2023/10/10 09:59:43;;;;;;;36.92;20.50;;;;;;;;;;12912613;22;20372;-87
2023/10/10 10:04:45;;;;;;;35.10;18.57;;;;;;;;;;12934416;23;20622;-86
2023/10/10 10:10:12;;;;;;;35.97;19.85;;;;;;;;;;12921373;23;20680;-86
2023/10/10 10:15:28;;;;;;;33.80;18.57;;;;;;;;;;12911992;23;20478;-86
2023/10/10 10:20:45;;;;;;;37.03;19.45;;;;;;;;;;12913021;23;20399;-86
2023/10/10 10:26:04;;;;;;;32.13;18.20;;;;;;;;;;12912899;23;20825;-86
2023/10/10 10:31:08;;;;;;;32.77;18.43;;;;;;;;;;12912792;23;20372;-86
2023/10/10 10:36:17;;;;;;;32.00;18.53;;;;;;;;;;12913202;23;20929;-87
2023/10/10 10:41:41;;;;;;;32.90;18.48;;;;;;;;;;12917421;23;20855;-87
2023/10/10 10:46:48;;;;;;;31.75;17.77;;;;;;;;;;12914870;23;20372;-87
2023/10/10 10:52:10;;;;;;;29.20;17.15;;;;;;;;;;12936732;23;20881;-87
2023/10/10 10:57:27;;;;;;;32.72;17.88;;;;;;;;;;12915959;23;20886;-86
2023/10/10 11:02:30;;;;;;;31.38;17.63;;;;;;;;;;12914422;22;20414;-87
2023/10/10 11:07:41;;;;;;;29.33;17.85;;;;;;;;;;12916357;23;20421;-87
2023/10/10 11:12:49;;;;;;;30.88;17.42;;;;;;;;;;12915594;23;20372;-87
2023/10/10 11:18:07;;;;;;;33.83;18.57;;;;;;;;;;12923919;23;20356;-86
2023/10/10 11:23:12;;;;;;;34.53;18.40;;;;;;;;;;12914663;23;20384;-86
2023/10/10 11:28:23;;;;;;;32.53;18.38;;;;;;;;;;12915261;23;20372;-87
2023/10/10 11:33:55;;;;;;;33.15;16.90;;;;;;;;;;12915323;23;20368;-88
2023/10/10 11:39:17;;;;;;;34.13;17.05;;;;;;;;;;12915820;23;20828;-87
2023/10/10 11:44:21;;;;;;;35.78;17.98;;;;;;;;;;12914494;23;20377;-87
2023/10/10 11:49:25;;;;;;;32.70;17.83;;;;;;;;;;12915089;23;20430;-87
2023/10/10 11:54:29;;;;;;;30.38;17.42;;;;;;;;;;12907413;23;20368;-86
2023/10/10 11:59:34;;;;;;;31.63;17.57;;;;;;;;;;12909066;22;20372;-86
2023/10/10 12:04:38;;;;;;;30.08;16.35;;;;;;;;;;12910254;23;20384;-86
2023/10/10 12:09:44;;;;;;;29.20;15.60;;;;;;;;;;12910113;23;20365;-86
2023/10/10 12:14:50;;;;;;;27.83;15.70;;;;;;;;;;12902090;23;20434;-86
2023/10/10 12:19:52;;;;;;;28.67;16.20;;;;;;;;;;12905054;23;20384;-86
2023/10/10 12:24:54;;;;;;;28.20;15.73;;;;;;;;;;12919207;23;20380;-87
2023/10/10 12:29:58;;;;;;;32.97;16.70;;;;;;;;;;12909245;23;20863;-87
2023/10/10 12:35:01;;;;;;;29.27;17.75;;;;;;;;;;12932519;23;20365;-86
2023/10/10 12:40:08;;;;;;;31.88;16.27;;;;;;;;;;12908969;23;20430;-88
2023/10/10 12:45:14;;;;;;;26.52;15.60;;;;;;;;;;12909435;23;20442;-87
2023/10/10 12:50:17;;;;;;;27.02;14.90;;;;;;;;;;12911826;23;20364;-87
2023/10/10 12:55:25;;;;;;;30.17;15.53;;;;;;;;;;12910530;23;20722;-87
2023/10/10 13:00:33;;;;;;;31.23;16.42;;;;;;;;;;12930372;22;20364;-86
2023/10/10 13:05:36;;;;;;;28.33;16.17;;;;;;;;;;12908135;23;20383;-88
2023/10/10 13:10:38;;;;;;;30.08;15.63;;;;;;;;;;12912594;23;20368;-86
2023/10/10 13:15:50;;;;;;;26.95;15.82;;;;;;;;;;12911824;23;20402;-87
2023/10/10 13:20:53;;;;;;;28.13;16.33;;;;;;;;;;12908738;23;20352;-88
2023/10/10 13:25:56;;;;;;;30.33;16.87;;;;;;;;;;12907644;23;20860;-87
2023/10/10 13:31:02;;;;;;;25.67;15.60;;;;;;;;;;12919296;23;20391;-87
2023/10/10 13:36:04;;;;;;;33.00;16.77;;;;;;;;;;12906435;23;20461;-87
2023/10/10 13:41:08;;;;;;;28.50;16.47;;;;;;;;;;12894680;23;20395;-87
2023/10/10 13:46:13;;;;;;;33.50;18.07;;;;;;;;;;12911671;23;20434;-87
2023/10/10 13:51:15;;;;;;;27.70;15.47;;;;;;;;;;12927218;23;20711;-86
2023/10/10 13:56:18;;;;;;;32.40;16.77;;;;;;;;;;12912269;23;20398;-87
2023/10/10 14:01:29;;;;;;;29.27;16.77;;;;;;;;;;12911477;22;20925;-86
2023/10/10 14:06:45;;;;;;;31.60;17.05;;;;;;;;;;12928837;23;20411;-87
2023/10/10 14:11:49;;;;;;;29.92;17.58;;;;;;;;;;12909858;23;20438;-87
2023/10/10 14:16:52;;;;;;;29.07;16.90;;;;;;;;;;12913553;23;20669;-87
2023/10/10 14:21:55;;;;;;;30.40;17.38;;;;;;;;;;12911220;23;20380;-87
2023/10/10 14:26:59;;;;;;;29.33;16.83;;;;;;;;;;12914734;23;20399;-87
2023/10/10 14:32:03;;;;;;;32.13;17.65;;;;;;;;;;12906911;23;20369;-87
2023/10/10 14:37:06;;;;;;;27.40;16.88;;;;;;;;;;12916556;23;20693;-86
2023/10/10 14:42:09;;;;;;;35.77;17.40;;;;;;;;;;12915492;23;20376;-86
2023/10/10 14:47:20;;;;;;;32.17;17.37;;;;;;;;;;12908747;23;20434;-87
2023/10/10 14:52:22;;;;;;;30.03;17.00;;;;;;;;;;12906343;23;20368;-87
2023/10/10 14:57:26;;;;;;;30.30;17.23;;;;;;;;;;12909264;23;20399;-87
2023/10/10 15:02:29;;;;;;;29.15;16.50;;;;;;;;;;12907641;22;20446;-88
2023/10/10 15:07:31;;;;;;;26.92;16.88;;;;;;;;;;12910124;23;20376;-88
2023/10/10 15:12:34;;;;;;;31.05;16.75;;;;;;;;;;12910575;23;20369;-87
2023/10/10 15:17:38;;;;;;;27.97;16.50;;;;;;;;;;12902014;23;20356;-85
2023/10/10 15:22:41;;;;;;;26.42;16.05;;;;;;;;;;12907765;23;20384;-86
2023/10/10 15:27:44;;;;;;;27.73;16.60;;;;;;;;;;12903465;23;20454;-84
2023/10/10 15:32:47;;;;;;;26.70;16.40;;;;;;;;;;12898161;23;20457;-86
2023/10/10 15:37:52;;;;;;;28.98;16.85;;;;;;;;;;12900251;23;20384;-86
2023/10/10 15:42:54;;;;;;;31.83;17.02;;;;;;;;;;12901010;23;20415;-86
2023/10/10 15:48:00;;;;;;;30.40;17.10;;;;;;;;;;12909724;23;20977;-85
2023/10/10 15:53:05;;;;;;;31.13;17.23;;;;;;;;;;12900830;23;20422;-85
2023/10/10 15:58:08;;;;;;;31.08;16.25;;;;;;;;;;12901090;23;20379;-86
2023/10/10 16:03:12;;;;;;;30.42;16.60;;;;;;;;;;12902090;22;20462;-86
2023/10/10 16:08:14;;;;;;;29.50;17.20;;;;;;;;;;12897505;23;20388;-86
2023/10/10 16:13:18;;;;;;;34.23;17.33;;;;;;;;;;12902527;23;20705;-86
2023/10/10 16:18:22;;;;;;;31.55;17.50;;;;;;;;;;12903077;23;20438;-85
2023/10/10 16:23:24;;;;;;;28.92;16.33;;;;;;;;;;12946084;22;20390;-85
2023/10/10 16:28:27;;;;;;;32.47;17.17;;;;;;;;;;12965150;22;20378;-85
2023/10/10 16:33:32;;;;;;;31.15;16.95;;;;;;;;;;12964814;22;20371;-85
2023/10/10 16:38:35;;;;;;;31.58;16.92;;;;;;;;;;12968371;22;20366;-85
2023/10/10 16:43:38;;;;;;;27.65;15.80;;;;;;;;;;12976657;22;20723;-84
2023/10/10 16:48:44;;;;;;;29.40;16.33;;;;;;;;;;12965530;22;20460;-86
2023/10/10 16:53:47;;;;;;;34.63;17.40;;;;;;;;;;12965717;22;20439;-86
2023/10/10 16:58:50;;;;;;;31.27;17.20;;;;;;;;;;12964289;22;20374;-86
2023/10/10 17:03:55;;;;;;;35.37;18.37;;;;;;;;;;12955647;22;20386;-86
2023/10/10 17:08:59;;;;;;;34.53;17.70;;;;;;;;;;12959618;22;20382;-86
2023/10/10 17:14:03;;;;;;;30.27;17.48;;;;;;;;;;12959494;22;20386;-85
2023/10/10 17:19:06;;;;;;;33.65;17.60;;;;;;;;;;12962196;22;20382;-85
2023/10/10 17:24:09;;;;;;;31.93;18.03;;;;;;;;;;12978910;22;20386;-85
2023/10/10 17:29:12;;;;;;;28.88;17.30;;;;;;;;;;12959231;22;20694;-87
2023/10/10 17:34:17;;;;;;;34.47;17.63;;;;;;;;;;12963798;22;20367;-88
2023/10/10 17:39:19;;;;;;;31.63;17.33;;;;;;;;;;12965568;22;21210;-86
2023/10/10 17:44:26;;;;;;;35.20;19.83;;;;;;;;;;12965593;22;20378;-85
2023/10/10 17:49:29;;;;;;;31.97;19.23;;;;;;;;;;12969153;22;20382;-86
2023/10/10 17:54:32;;;;;;;34.05;19.40;;;;;;;;;;12959933;22;20374;-85
2023/10/10 17:59:34;;;;;;;36.00;19.00;;;;;;;;;;12961333;22;20440;-86
2023/10/10 18:04:41;;;;;;;33.27;19.40;;;;;;;;;;12961692;22;20386;-86
2023/10/10 18:09:43;;;;;;;34.80;21.07;;;;;;;;;;12974051;22;20362;-85
2023/10/10 18:14:46;;;;;;;38.92;20.83;;;;;;;;;;12963034;22;20417;-85
2023/10/10 18:19:51;;;;;;;38.28;21.17;;;;;;;;;;12963020;22;20428;-85
2023/10/10 18:24:53;;;;;;;36.50;20.83;;;;;;;;;;12964967;22;20452;-85
2023/10/10 18:29:57;;;;;;;38.83;21.40;;;;;;;;;;12963214;22;20412;-85
2023/10/10 18:35:01;;;;;;;38.08;21.13;;;;;;;;;;12962911;22;21116;-85
2023/10/10 18:40:11;;;;;;;41.17;20.83;;;;;;;;;;12963883;22;20397;-85
2023/10/10 18:45:14;;;;;;;37.97;21.08;;;;;;;;;;12968713;22;20707;-88
2023/10/10 18:50:19;;;;;;;38.40;20.77;;;;;;;;;;12976205;22;20440;-88
2023/10/10 18:55:25;;;;;;;35.92;20.63;;;;;;;;;;12968614;22;20448;-88
2023/10/10 19:00:28;;;;;;;37.58;21.38;;;;;;;;;;12971940;22;20964;-89
2023/10/10 19:05:32;;;;;;;42.42;20.77;;;;;;;;;;12967197;22;20390;-87
2023/10/10 19:10:35;;;;;;;36.00;20.20;;;;;;;;;;12969027;22;20375;-89
2023/10/10 19:15:38;;;;;;;42.03;20.67;;;;;;;;;;12972217;22;20378;-88
2023/10/10 19:20:43;;;;;;;36.17;21.05;;;;;;;;;;12985723;22;20849;-90
2023/10/10 19:25:46;;;;;;;44.13;23.03;;;;;;;;;;12968368;22;20442;-90
2023/10/10 19:30:50;;;;;;;42.35;23.13;;;;;;;;;;12971318;22;20432;-87
2023/10/10 19:35:55;;;;;;;44.03;23.65;;;;;;;;;;12969717;22;20359;-89
2023/10/10 19:41:03;;;;;;;46.42;23.35;;;;;;;;;;12971293;22;20363;-90
2023/10/10 19:46:09;;;;;;;45.08;23.98;;;;;;;;;;12970986;22;20465;-89
2023/10/10 19:51:17;;;;;;;46.80;24.37;;;;;;;;;;12975482;22;20383;-87
2023/10/10 19:56:21;;;;;;;43.22;24.08;;;;;;;;;;12977250;22;20457;-88
2023/10/10 20:01:25;;;;;;;46.78;25.67;;;;;;;;;;12978313;22;20367;-89
2023/10/10 20:06:30;;;;;;;46.40;25.67;;;;;;;;;;12969137;22;20416;-88
2023/10/10 20:11:32;;;;;;;47.85;27.13;;;;;;;;;;12968331;22;21057;-89
2023/10/10 20:16:34;;;;;;;50.65;25.70;;;;;;;;;;12971277;22;20408;-89
2023/10/10 20:21:39;;;;;;;49.15;26.08;;;;;;;;;;12972753;22;20433;-88
2023/10/10 20:26:42;;;;;;;52.30;27.08;;;;;;;;;;12988789;22;20701;-88
2023/10/10 20:31:44;;;;;;;51.97;28.20;;;;;;;;;;12990363;22;20370;-88
2023/10/10 20:36:48;;;;;;;49.35;28.73;;;;;;;;;;12993967;22;20686;-88
2023/10/10 20:41:50;;;;;;;53.45;27.92;;;;;;;;;;12971799;22;20432;-88
2023/10/10 20:46:53;;;;;;;51.37;29.33;;;;;;;;;;12971227;22;20382;-89
2023/10/10 20:51:58;;;;;;;54.40;28.00;;;;;;;;;;12971049;22;20452;-89
2023/10/10 20:57:01;;;;;;;54.17;28.90;;;;;;;;;;12977422;22;20382;-88
2023/10/10 21:02:03;;;;;;;52.05;28.58;;;;;;;;;;12968785;22;20379;-89
2023/10/10 21:07:07;;;;;;;48.20;27.60;;;;;;;;;;12942019;22;20853;-89
2023/10/10 21:12:12;;;;;;;51.47;27.08;;;;;;;;;;12968891;22;20382;-89
2023/10/10 21:17:16;;;;;;;48.77;25.37;;;;;;;;;;12983899;22;20397;-88
2023/10/10 21:22:20;;;;;;;47.38;26.15;;;;;;;;;;12970014;22;20693;-89
2023/10/10 21:27:23;;;;;;;48.90;26.38;;;;;;;;;;12969441;22;20390;-89
2023/10/10 21:32:26;;;;;;;44.43;24.23;;;;;;;;;;12970077;22;20404;-88
2023/10/10 21:37:29;;;;;;;43.53;24.73;;;;;;;;;;12971708;22;20456;-90
2023/10/10 21:42:31;;;;;;;45.97;23.90;;;;;;;;;;12976192;22;20773;-89
2023/10/10 21:47:34;;;;;;;40.63;24.15;;;;;;;;;;12977248;22;20387;-88
2023/10/10 21:52:39;;;;;;;47.63;25.02;;;;;;;;;;12967019;22;20723;-89
2023/10/10 21:57:41;;;;;;;46.22;24.33;;;;;;;;;;12979144;22;20432;-89
2023/10/10 22:02:45;;;;;;;41.45;23.58;;;;;;;;;;12965217;22;20452;-89
2023/10/10 22:07:50;;;;;;;38.47;21.52;;;;;;;;;;12968712;22;20906;-91
2023/10/10 22:12:54;;;;;;;42.43;22.37;;;;;;;;;;12976884;22;20375;-92
2023/10/10 22:17:57;;;;;;;40.85;22.63;;;;;;;;;;12972247;22;20553;-92
2023/10/10 22:34:39;;;;;;;38.93;20.63;;;;;;;;;;13102118;22;20359;-90
2023/10/10 22:39:42;;;;;;;35.05;19.95;;;;;;;;;;13135233;22;20351;-92
2023/10/10 22:44:44;;;;;;;34.47;19.93;;;;;;;;;;13114691;22;20383;-92
2023/10/10 22:49:48;;;;;;;32.30;19.00;;;;;;;;;;13112253;22;20424;-91
2023/10/10 22:54:51;;;;;;;35.50;19.45;;;;;;;;;;13108850;22;20412;-91
2023/10/10 22:59:54;;;;;;;30.37;17.07;;;;;;;;;;13105757;22;20587;-91
2023/10/10 23:04:59;;;;;;;30.63;16.77;;;;;;;;;;13047266;22;20380;-92
2023/10/10 23:10:01;;;;;;;29.75;18.25;;;;;;;;;;13048411;22;20399;-91
2023/10/10 23:15:11;;;;;;;31.10;18.33;;;;;;;;;;13050533;22;20441;-91
2023/10/10 23:20:20;;;;;;;29.30;16.00;;;;;;;;;;13050702;22;20391;-91
2023/10/10 23:25:24;;;;;;;27.07;16.17;;;;;;;;;;13050712;22;20446;-90
2023/10/10 23:30:27;;;;;;;29.75;17.70;;;;;;;;;;13050817;22;20727;-91
2023/10/10 23:35:33;;;;;;;31.42;16.95;;;;;;;;;;13050103;22;20817;-92
2023/10/10 23:40:44;;;;;;;26.63;15.68;;;;;;;;;;13049743;22;20377;-91
2023/10/10 23:45:48;;;;;;;23.92;15.25;;;;;;;;;;13082015;22;20910;-91
2023/10/10 23:50:54;;;;;;;28.47;16.80;;;;;;;;;;13050492;22;20361;-92
2023/10/10 23:55:58;;;;;;;28.75;14.90;;;;;;;;;;13049964;22;20426;-91
